sensor_id;sensor_type;location;lat;lon;timestamp;P1;durP1;ratioP1;P2;durP2;ratioP2
47589;SDS011;33316;52.298;9.056;2023-04-30T00:01:29;6.05;;;2.80;;
47589;SDS011;33316;52.298;9.056;2023-04-30T00:03:55;4.18;;;2.70;;
47589;SDS011;33316;52.298;9.056;2023-04-30T00:06:22;4.18;;;2.53;;
47589;SDS011;33316;52.298;9.056;2023-04-30T00:08:48;4.57;;;2.75;;
47589;SDS011;33316;52.298;9.056;2023-04-30T00:11:16;3.88;;;2.13;;
47589;SDS011;33316;52.298;9.056;2023-04-30T00:13:43;4.68;;;2.38;;
47589;SDS011;33316;52.298;9.056;2023-04-30T00:16:10;5.25;;;2.67;;
47589;SDS011;33316;52.298;9.056;2023-04-30T00:18:36;6.45;;;2.30;;
47589;SDS011;33316;52.298;9.056;2023-04-30T00:21:03;3.35;;;2.60;;
47589;SDS011;33316;52.298;9.056;2023-04-30T00:23:33;5.38;;;2.65;;
47589;SDS011;33316;52.298;9.056;2023-04-30T00:25:59;4.72;;;3.00;;
47589;SDS011;33316;52.298;9.056;2023-04-30T00:28:27;3.80;;;2.58;;
47589;SDS011;33316;52.298;9.056;2023-04-30T00:30:54;4.13;;;2.85;;
47589;SDS011;33316;52.298;9.056;2023-04-30T00:33:21;5.32;;;2.63;;
47589;SDS011;33316;52.298;9.056;2023-04-30T00:35:47;7.47;;;2.67;;
47589;SDS011;33316;52.298;9.056;2023-04-30T00:38:14;4.03;;;2.55;;
47589;SDS011;33316;52.298;9.056;2023-04-30T00:40:41;4.68;;;2.67;;
47589;SDS011;33316;52.298;9.056;2023-04-30T00:43:08;5.82;;;2.70;;
47589;SDS011;33316;52.298;9.056;2023-04-30T00:45:36;5.18;;;2.85;;
47589;SDS011;33316;52.298;9.056;2023-04-30T00:48:03;5.28;;;2.50;;
47589;SDS011;33316;52.298;9.056;2023-04-30T00:50:30;3.22;;;2.30;;
47589;SDS011;33316;52.298;9.056;2023-04-30T00:52:57;5.18;;;2.75;;
47589;SDS011;33316;52.298;9.056;2023-04-30T00:55:25;3.63;;;2.47;;
47589;SDS011;33316;52.298;9.056;2023-04-30T00:57:52;4.43;;;3.00;;
47589;SDS011;33316;52.298;9.056;2023-04-30T01:00:19;6.47;;;2.72;;
47589;SDS011;33316;52.298;9.056;2023-04-30T01:02:47;3.00;;;2.55;;
47589;SDS011;33316;52.298;9.056;2023-04-30T01:05:14;3.92;;;2.10;;
47589;SDS011;33316;52.298;9.056;2023-04-30T01:07:41;4.45;;;2.60;;
47589;SDS011;33316;52.298;9.056;2023-04-30T01:10:10;3.60;;;2.60;;
47589;SDS011;33316;52.298;9.056;2023-04-30T01:12:38;3.60;;;1.92;;
47589;SDS011;33316;52.298;9.056;2023-04-30T01:15:13;2.60;;;1.98;;
47589;SDS011;33316;52.298;9.056;2023-04-30T01:17:55;2.70;;;1.55;;
47589;SDS011;33316;52.298;9.056;2023-04-30T01:20:25;3.30;;;2.30;;
47589;SDS011;33316;52.298;9.056;2023-04-30T01:22:55;5.72;;;2.50;;
47589;SDS011;33316;52.298;9.056;2023-04-30T01:25:52;3.22;;;2.22;;
47589;SDS011;33316;52.298;9.056;2023-04-30T01:28:37;3.28;;;2.42;;
47589;SDS011;33316;52.298;9.056;2023-04-30T01:31:10;3.78;;;2.17;;
47589;SDS011;33316;52.298;9.056;2023-04-30T01:33:37;4.95;;;2.30;;
47589;SDS011;33316;52.298;9.056;2023-04-30T01:36:10;3.17;;;2.13;;
47589;SDS011;33316;52.298;9.056;2023-04-30T01:38:52;3.67;;;2.35;;
47589;SDS011;33316;52.298;9.056;2023-04-30T01:41:28;2.95;;;2.28;;
47589;SDS011;33316;52.298;9.056;2023-04-30T01:44:05;3.35;;;2.28;;
47589;SDS011;33316;52.298;9.056;2023-04-30T01:46:42;3.55;;;2.20;;
47589;SDS011;33316;52.298;9.056;2023-04-30T01:49:18;3.75;;;2.50;;
47589;SDS011;33316;52.298;9.056;2023-04-30T01:51:51;3.83;;;2.38;;
47589;SDS011;33316;52.298;9.056;2023-04-30T01:54:26;3.58;;;2.60;;
47589;SDS011;33316;52.298;9.056;2023-04-30T01:57:00;3.30;;;2.22;;
47589;SDS011;33316;52.298;9.056;2023-04-30T01:59:32;4.53;;;2.80;;
47589;SDS011;33316;52.298;9.056;2023-04-30T02:04:27;2.80;;;2.03;;
47589;SDS011;33316;52.298;9.056;2023-04-30T02:06:54;2.65;;;1.98;;
47589;SDS011;33316;52.298;9.056;2023-04-30T02:09:20;3.42;;;2.40;;
47589;SDS011;33316;52.298;9.056;2023-04-30T02:11:48;2.38;;;1.88;;
47589;SDS011;33316;52.298;9.056;2023-04-30T02:14:14;5.32;;;2.55;;
47589;SDS011;33316;52.298;9.056;2023-04-30T02:16:42;4.82;;;2.65;;
47589;SDS011;33316;52.298;9.056;2023-04-30T02:19:09;3.50;;;2.83;;
47589;SDS011;33316;52.298;9.056;2023-04-30T02:21:36;2.97;;;2.17;;
47589;SDS011;33316;52.298;9.056;2023-04-30T02:24:03;4.10;;;2.75;;
47589;SDS011;33316;52.298;9.056;2023-04-30T02:26:30;4.05;;;2.40;;
47589;SDS011;33316;52.298;9.056;2023-04-30T02:28:56;3.28;;;2.10;;
47589;SDS011;33316;52.298;9.056;2023-04-30T02:31:23;3.10;;;2.05;;
47589;SDS011;33316;52.298;9.056;2023-04-30T02:33:51;4.10;;;2.35;;
47589;SDS011;33316;52.298;9.056;2023-04-30T02:36:18;3.25;;;2.03;;
47589;SDS011;33316;52.298;9.056;2023-04-30T02:38:44;2.22;;;1.45;;
47589;SDS011;33316;52.298;9.056;2023-04-30T02:41:11;1.20;;;1.10;;
47589;SDS011;33316;52.298;9.056;2023-04-30T02:43:38;1.95;;;1.38;;
47589;SDS011;33316;52.298;9.056;2023-04-30T02:46:04;2.53;;;1.60;;
47589;SDS011;33316;52.298;9.056;2023-04-30T02:48:31;2.63;;;1.83;;
47589;SDS011;33316;52.298;9.056;2023-04-30T02:50:59;5.18;;;2.45;;
47589;SDS011;33316;52.298;9.056;2023-04-30T02:53:26;4.57;;;2.70;;
47589;SDS011;33316;52.298;9.056;2023-04-30T02:55:52;4.60;;;2.38;;
47589;SDS011;33316;52.298;9.056;2023-04-30T02:58:19;5.20;;;2.90;;
47589;SDS011;33316;52.298;9.056;2023-04-30T03:00:45;4.18;;;2.60;;
47589;SDS011;33316;52.298;9.056;2023-04-30T03:03:12;3.55;;;2.45;;
47589;SDS011;33316;52.298;9.056;2023-04-30T03:05:39;9.15;;;2.70;;
47589;SDS011;33316;52.298;9.056;2023-04-30T03:08:07;5.75;;;3.10;;
47589;SDS011;33316;52.298;9.056;2023-04-30T03:10:33;7.18;;;3.42;;
47589;SDS011;33316;52.298;9.056;2023-04-30T03:13:00;4.70;;;3.05;;
47589;SDS011;33316;52.298;9.056;2023-04-30T03:15:27;5.85;;;3.25;;
47589;SDS011;33316;52.298;9.056;2023-04-30T03:17:53;6.30;;;3.10;;
47589;SDS011;33316;52.298;9.056;2023-04-30T03:20:20;3.47;;;2.50;;
47589;SDS011;33316;52.298;9.056;2023-04-30T03:22:47;3.90;;;2.50;;
47589;SDS011;33316;52.298;9.056;2023-04-30T03:25:15;4.85;;;2.20;;
47589;SDS011;33316;52.298;9.056;2023-04-30T03:27:41;4.65;;;2.17;;
47589;SDS011;33316;52.298;9.056;2023-04-30T03:30:08;3.10;;;1.83;;
47589;SDS011;33316;52.298;9.056;2023-04-30T03:32:35;2.83;;;1.88;;
47589;SDS011;33316;52.298;9.056;2023-04-30T03:35:02;3.38;;;1.90;;
47589;SDS011;33316;52.298;9.056;2023-04-30T03:37:30;2.33;;;1.60;;
47589;SDS011;33316;52.298;9.056;2023-04-30T03:39:56;2.03;;;1.60;;
47589;SDS011;33316;52.298;9.056;2023-04-30T03:42:24;2.97;;;1.85;;
47589;SDS011;33316;52.298;9.056;2023-04-30T03:44:51;3.40;;;2.10;;
47589;SDS011;33316;52.298;9.056;2023-04-30T03:47:17;5.35;;;2.58;;
47589;SDS011;33316;52.298;9.056;2023-04-30T03:49:44;4.07;;;2.75;;
47589;SDS011;33316;52.298;9.056;2023-04-30T03:52:12;3.67;;;2.42;;
47589;SDS011;33316;52.298;9.056;2023-04-30T03:54:39;3.28;;;2.10;;
47589;SDS011;33316;52.298;9.056;2023-04-30T03:57:06;3.00;;;2.10;;
47589;SDS011;33316;52.298;9.056;2023-04-30T03:59:36;3.20;;;2.10;;
47589;SDS011;33316;52.298;9.056;2023-04-30T04:02:02;4.53;;;2.38;;
47589;SDS011;33316;52.298;9.056;2023-04-30T04:04:30;3.53;;;2.42;;
47589;SDS011;33316;52.298;9.056;2023-04-30T04:06:57;3.90;;;2.63;;
47589;SDS011;33316;52.298;9.056;2023-04-30T04:09:23;6.28;;;2.70;;
47589;SDS011;33316;52.298;9.056;2023-04-30T04:11:51;5.53;;;3.42;;
47589;SDS011;33316;52.298;9.056;2023-04-30T04:14:17;5.75;;;3.33;;
47589;SDS011;33316;52.298;9.056;2023-04-30T04:16:45;6.72;;;3.30;;
47589;SDS011;33316;52.298;9.056;2023-04-30T04:19:12;7.38;;;4.03;;
47589;SDS011;33316;52.298;9.056;2023-04-30T04:21:38;6.30;;;3.60;;
47589;SDS011;33316;52.298;9.056;2023-04-30T04:24:05;6.97;;;3.80;;
47589;SDS011;33316;52.298;9.056;2023-04-30T04:26:33;8.30;;;4.10;;
47589;SDS011;33316;52.298;9.056;2023-04-30T04:29:00;5.95;;;3.72;;
47589;SDS011;33316;52.298;9.056;2023-04-30T04:31:27;6.55;;;3.78;;
47589;SDS011;33316;52.298;9.056;2023-04-30T04:33:55;6.75;;;4.15;;
47589;SDS011;33316;52.298;9.056;2023-04-30T04:36:23;5.47;;;3.65;;
47589;SDS011;33316;52.298;9.056;2023-04-30T04:38:50;5.75;;;2.90;;
47589;SDS011;33316;52.298;9.056;2023-04-30T04:41:17;3.58;;;2.42;;
47589;SDS011;33316;52.298;9.056;2023-04-30T04:43:44;3.28;;;2.30;;
47589;SDS011;33316;52.298;9.056;2023-04-30T04:46:11;3.38;;;1.92;;
47589;SDS011;33316;52.298;9.056;2023-04-30T04:48:40;2.85;;;1.88;;
47589;SDS011;33316;52.298;9.056;2023-04-30T04:51:08;3.17;;;1.90;;
47589;SDS011;33316;52.298;9.056;2023-04-30T04:53:35;3.40;;;1.42;;
47589;SDS011;33316;52.298;9.056;2023-04-30T04:56:01;1.88;;;1.27;;
47589;SDS011;33316;52.298;9.056;2023-04-30T04:58:28;2.97;;;1.17;;
47589;SDS011;33316;52.298;9.056;2023-04-30T05:00:55;1.88;;;1.40;;
47589;SDS011;33316;52.298;9.056;2023-04-30T05:03:23;1.38;;;1.17;;
47589;SDS011;33316;52.298;9.056;2023-04-30T05:05:51;1.88;;;1.48;;
47589;SDS011;33316;52.298;9.056;2023-04-30T05:08:19;3.25;;;1.60;;
47589;SDS011;33316;52.298;9.056;2023-04-30T05:10:45;3.97;;;2.17;;
47589;SDS011;33316;52.298;9.056;2023-04-30T05:13:12;7.15;;;1.85;;
47589;SDS011;33316;52.298;9.056;2023-04-30T05:15:39;3.45;;;1.90;;
47589;SDS011;33316;52.298;9.056;2023-04-30T05:18:05;3.20;;;2.10;;
47589;SDS011;33316;52.298;9.056;2023-04-30T05:20:32;6.35;;;3.78;;
47589;SDS011;33316;52.298;9.056;2023-04-30T05:22:59;4.18;;;3.78;;
47589;SDS011;33316;52.298;9.056;2023-04-30T05:25:27;4.55;;;3.42;;
47589;SDS011;33316;52.298;9.056;2023-04-30T05:27:53;3.00;;;2.38;;
47589;SDS011;33316;52.298;9.056;2023-04-30T05:30:20;6.47;;;3.10;;
47589;SDS011;33316;52.298;9.056;2023-04-30T05:32:47;5.63;;;2.60;;
47589;SDS011;33316;52.298;9.056;2023-04-30T05:35:16;7.32;;;2.83;;
47589;SDS011;33316;52.298;9.056;2023-04-30T05:37:42;3.03;;;2.17;;
47589;SDS011;33316;52.298;9.056;2023-04-30T05:40:09;4.63;;;2.30;;
47589;SDS011;33316;52.298;9.056;2023-04-30T05:42:38;3.55;;;2.28;;
47589;SDS011;33316;52.298;9.056;2023-04-30T05:45:07;4.03;;;2.50;;
47589;SDS011;33316;52.298;9.056;2023-04-30T05:47:36;2.55;;;2.10;;
47589;SDS011;33316;52.298;9.056;2023-04-30T05:50:03;6.80;;;2.72;;
47589;SDS011;33316;52.298;9.056;2023-04-30T05:52:30;7.28;;;2.90;;
47589;SDS011;33316;52.298;9.056;2023-04-30T05:54:57;5.15;;;4.00;;
47589;SDS011;33316;52.298;9.056;2023-04-30T05:57:23;6.07;;;3.05;;
47589;SDS011;33316;52.298;9.056;2023-04-30T05:59:51;5.50;;;3.25;;
47589;SDS011;33316;52.298;9.056;2023-04-30T06:02:18;6.40;;;3.28;;
47589;SDS011;33316;52.298;9.056;2023-04-30T06:04:46;6.18;;;2.72;;
47589;SDS011;33316;52.298;9.056;2023-04-30T06:07:12;6.70;;;3.35;;
47589;SDS011;33316;52.298;9.056;2023-04-30T06:09:39;4.45;;;2.80;;
47589;SDS011;33316;52.298;9.056;2023-04-30T06:12:06;5.18;;;3.10;;
47589;SDS011;33316;52.298;9.056;2023-04-30T06:14:32;6.97;;;3.88;;
47589;SDS011;33316;52.298;9.056;2023-04-30T06:17:01;8.95;;;3.60;;
47589;SDS011;33316;52.298;9.056;2023-04-30T06:19:28;6.82;;;3.63;;
47589;SDS011;33316;52.298;9.056;2023-04-30T06:21:55;7.47;;;3.28;;
47589;SDS011;33316;52.298;9.056;2023-04-30T06:24:21;9.50;;;3.67;;
47589;SDS011;33316;52.298;9.056;2023-04-30T06:26:51;8.25;;;3.30;;
47589;SDS011;33316;52.298;9.056;2023-04-30T06:29:18;7.05;;;3.33;;
47589;SDS011;33316;52.298;9.056;2023-04-30T06:31:44;7.95;;;3.22;;
47589;SDS011;33316;52.298;9.056;2023-04-30T06:34:12;5.65;;;2.75;;
47589;SDS011;33316;52.298;9.056;2023-04-30T06:36:39;9.70;;;3.05;;
47589;SDS011;33316;52.298;9.056;2023-04-30T06:39:06;5.85;;;2.55;;
47589;SDS011;33316;52.298;9.056;2023-04-30T06:41:32;10.23;;;2.83;;
47589;SDS011;33316;52.298;9.056;2023-04-30T06:43:59;5.38;;;2.60;;
47589;SDS011;33316;52.298;9.056;2023-04-30T06:46:26;6.47;;;2.90;;
47589;SDS011;33316;52.298;9.056;2023-04-30T06:48:52;5.82;;;2.80;;
47589;SDS011;33316;52.298;9.056;2023-04-30T06:51:20;8.32;;;2.45;;
47589;SDS011;33316;52.298;9.056;2023-04-30T06:53:47;7.63;;;2.35;;
47589;SDS011;33316;52.298;9.056;2023-04-30T06:56:13;8.98;;;2.83;;
47589;SDS011;33316;52.298;9.056;2023-04-30T06:58:40;5.47;;;2.33;;
47589;SDS011;33316;52.298;9.056;2023-04-30T07:01:07;3.83;;;2.05;;
47589;SDS011;33316;52.298;9.056;2023-04-30T07:03:33;10.13;;;2.20;;
47589;SDS011;33316;52.298;9.056;2023-04-30T07:06:00;7.57;;;2.22;;
47589;SDS011;33316;52.298;9.056;2023-04-30T07:08:29;6.63;;;2.03;;
47589;SDS011;33316;52.298;9.056;2023-04-30T07:10:55;6.25;;;2.10;;
47589;SDS011;33316;52.298;9.056;2023-04-30T07:13:22;7.65;;;2.40;;
47589;SDS011;33316;52.298;9.056;2023-04-30T07:15:49;6.60;;;2.28;;
47589;SDS011;33316;52.298;9.056;2023-04-30T07:18:15;11.07;;;2.60;;
47589;SDS011;33316;52.298;9.056;2023-04-30T07:20:42;8.15;;;1.98;;
47589;SDS011;33316;52.298;9.056;2023-04-30T07:23:09;5.90;;;1.95;;
47589;SDS011;33316;52.298;9.056;2023-04-30T07:25:37;7.57;;;2.08;;
47589;SDS011;33316;52.298;9.056;2023-04-30T07:28:07;7.88;;;2.30;;
47589;SDS011;33316;52.298;9.056;2023-04-30T07:30:35;8.55;;;2.28;;
47589;SDS011;33316;52.298;9.056;2023-04-30T07:33:05;7.97;;;2.20;;
47589;SDS011;33316;52.298;9.056;2023-04-30T07:35:35;6.88;;;1.80;;
47589;SDS011;33316;52.298;9.056;2023-04-30T07:38:04;6.22;;;2.00;;
47589;SDS011;33316;52.298;9.056;2023-04-30T07:40:31;4.65;;;1.70;;
47589;SDS011;33316;52.298;9.056;2023-04-30T07:42:59;4.72;;;1.73;;
47589;SDS011;33316;52.298;9.056;2023-04-30T07:45:26;4.82;;;1.65;;
47589;SDS011;33316;52.298;9.056;2023-04-30T07:47:53;6.07;;;1.88;;
47589;SDS011;33316;52.298;9.056;2023-04-30T07:50:28;10.05;;;1.88;;
47589;SDS011;33316;52.298;9.056;2023-04-30T07:52:57;4.97;;;2.35;;
47589;SDS011;33316;52.298;9.056;2023-04-30T07:55:24;8.77;;;2.33;;
47589;SDS011;33316;52.298;9.056;2023-04-30T07:57:51;6.75;;;2.17;;
47589;SDS011;33316;52.298;9.056;2023-04-30T08:00:19;6.28;;;2.50;;
47589;SDS011;33316;52.298;9.056;2023-04-30T08:02:47;6.57;;;2.35;;
47589;SDS011;33316;52.298;9.056;2023-04-30T08:05:14;4.80;;;2.10;;
47589;SDS011;33316;52.298;9.056;2023-04-30T08:07:40;5.35;;;2.10;;
47589;SDS011;33316;52.298;9.056;2023-04-30T08:10:11;5.32;;;1.83;;
47589;SDS011;33316;52.298;9.056;2023-04-30T08:12:38;4.63;;;2.03;;
47589;SDS011;33316;52.298;9.056;2023-04-30T08:15:05;10.82;;;2.35;;
47589;SDS011;33316;52.298;9.056;2023-04-30T08:17:34;8.43;;;2.40;;
47589;SDS011;33316;52.298;9.056;2023-04-30T08:20:01;5.60;;;1.85;;
47589;SDS011;33316;52.298;9.056;2023-04-30T08:22:29;5.22;;;2.35;;
47589;SDS011;33316;52.298;9.056;2023-04-30T08:24:56;6.43;;;2.00;;
47589;SDS011;33316;52.298;9.056;2023-04-30T08:27:22;8.02;;;2.30;;
47589;SDS011;33316;52.298;9.056;2023-04-30T08:29:49;5.18;;;2.17;;
47589;SDS011;33316;52.298;9.056;2023-04-30T08:32:17;5.50;;;2.20;;
47589;SDS011;33316;52.298;9.056;2023-04-30T08:34:45;4.60;;;1.95;;
47589;SDS011;33316;52.298;9.056;2023-04-30T08:37:15;7.57;;;2.03;;
47589;SDS011;33316;52.298;9.056;2023-04-30T08:39:42;5.70;;;2.33;;
47589;SDS011;33316;52.298;9.056;2023-04-30T08:42:08;8.32;;;2.63;;
47589;SDS011;33316;52.298;9.056;2023-04-30T08:44:39;8.43;;;2.33;;
47589;SDS011;33316;52.298;9.056;2023-04-30T08:47:07;5.53;;;1.90;;
47589;SDS011;33316;52.298;9.056;2023-04-30T08:49:38;8.07;;;2.22;;
47589;SDS011;33316;52.298;9.056;2023-04-30T08:52:06;5.47;;;1.83;;
47589;SDS011;33316;52.298;9.056;2023-04-30T08:54:33;6.93;;;2.20;;
47589;SDS011;33316;52.298;9.056;2023-04-30T08:57:01;6.78;;;2.35;;
47589;SDS011;33316;52.298;9.056;2023-04-30T08:59:28;5.03;;;1.75;;
47589;SDS011;33316;52.298;9.056;2023-04-30T09:01:55;5.10;;;1.70;;
47589;SDS011;33316;52.298;9.056;2023-04-30T09:04:22;7.18;;;1.98;;
47589;SDS011;33316;52.298;9.056;2023-04-30T09:06:50;4.80;;;2.22;;
47589;SDS011;33316;52.298;9.056;2023-04-30T09:09:19;7.18;;;1.90;;
47589;SDS011;33316;52.298;9.056;2023-04-30T09:11:45;6.30;;;1.95;;
47589;SDS011;33316;52.298;9.056;2023-04-30T09:14:12;6.47;;;2.13;;
47589;SDS011;33316;52.298;9.056;2023-04-30T09:16:50;4.20;;;1.55;;
47589;SDS011;33316;52.298;9.056;2023-04-30T09:19:24;4.07;;;1.70;;
47589;SDS011;33316;52.298;9.056;2023-04-30T09:21:51;5.10;;;1.80;;
47589;SDS011;33316;52.298;9.056;2023-04-30T09:24:19;7.65;;;1.90;;
47589;SDS011;33316;52.298;9.056;2023-04-30T09:26:46;4.68;;;1.63;;
47589;SDS011;33316;52.298;9.056;2023-04-30T09:29:14;6.70;;;2.00;;
47589;SDS011;33316;52.298;9.056;2023-04-30T09:31:42;5.13;;;1.77;;
47589;SDS011;33316;52.298;9.056;2023-04-30T09:34:09;5.45;;;2.05;;
47589;SDS011;33316;52.298;9.056;2023-04-30T09:36:36;6.15;;;1.70;;
47589;SDS011;33316;52.298;9.056;2023-04-30T09:39:16;5.53;;;1.85;;
47589;SDS011;33316;52.298;9.056;2023-04-30T09:41:44;4.88;;;1.70;;
47589;SDS011;33316;52.298;9.056;2023-04-30T09:44:26;4.30;;;1.63;;
47589;SDS011;33316;52.298;9.056;2023-04-30T09:46:53;5.30;;;1.70;;
47589;SDS011;33316;52.298;9.056;2023-04-30T09:49:21;4.50;;;1.52;;
47589;SDS011;33316;52.298;9.056;2023-04-30T09:51:52;5.50;;;1.83;;
47589;SDS011;33316;52.298;9.056;2023-04-30T09:54:20;4.53;;;1.73;;
47589;SDS011;33316;52.298;9.056;2023-04-30T09:56:51;5.40;;;1.60;;
47589;SDS011;33316;52.298;9.056;2023-04-30T09:59:19;4.43;;;1.42;;
47589;SDS011;33316;52.298;9.056;2023-04-30T10:01:47;4.93;;;1.73;;
47589;SDS011;33316;52.298;9.056;2023-04-30T10:04:16;7.40;;;1.80;;
47589;SDS011;33316;52.298;9.056;2023-04-30T10:06:43;4.35;;;1.50;;
47589;SDS011;33316;52.298;9.056;2023-04-30T10:09:11;6.47;;;1.52;;
47589;SDS011;33316;52.298;9.056;2023-04-30T10:11:40;4.43;;;1.55;;
47589;SDS011;33316;52.298;9.056;2023-04-30T10:14:11;3.95;;;1.40;;
47589;SDS011;33316;52.298;9.056;2023-04-30T10:16:42;5.45;;;1.20;;
47589;SDS011;33316;52.298;9.056;2023-04-30T10:19:13;3.55;;;1.52;;
47589;SDS011;33316;52.298;9.056;2023-04-30T10:21:44;2.13;;;1.00;;
47589;SDS011;33316;52.298;9.056;2023-04-30T10:24:12;4.45;;;1.27;;
47589;SDS011;33316;52.298;9.056;2023-04-30T10:26:40;3.00;;;1.23;;
47589;SDS011;33316;52.298;9.056;2023-04-30T10:29:07;4.00;;;1.20;;
47589;SDS011;33316;52.298;9.056;2023-04-30T10:31:36;5.63;;;1.33;;
47589;SDS011;33316;52.298;9.056;2023-04-30T10:34:05;3.70;;;1.40;;
47589;SDS011;33316;52.298;9.056;2023-04-30T10:36:41;4.50;;;1.30;;
47589;SDS011;33316;52.298;9.056;2023-04-30T10:39:12;5.15;;;1.50;;
47589;SDS011;33316;52.298;9.056;2023-04-30T10:41:41;2.95;;;1.20;;
47589;SDS011;33316;52.298;9.056;2023-04-30T10:44:10;4.68;;;1.70;;
47589;SDS011;33316;52.298;9.056;2023-04-30T10:46:38;4.55;;;1.60;;
47589;SDS011;33316;52.298;9.056;2023-04-30T10:49:05;5.10;;;1.45;;
47589;SDS011;33316;52.298;9.056;2023-04-30T10:51:44;6.80;;;1.60;;
47589;SDS011;33316;52.298;9.056;2023-04-30T10:54:14;2.85;;;0.95;;
47589;SDS011;33316;52.298;9.056;2023-04-30T10:56:43;3.60;;;1.20;;
47589;SDS011;33316;52.298;9.056;2023-04-30T10:59:11;3.95;;;1.08;;
47589;SDS011;33316;52.298;9.056;2023-04-30T11:04:31;2.20;;;1.05;;
47589;SDS011;33316;52.298;9.056;2023-04-30T11:07:01;6.18;;;1.63;;
47589;SDS011;33316;52.298;9.056;2023-04-30T11:09:38;3.35;;;1.08;;
47589;SDS011;33316;52.298;9.056;2023-04-30T11:12:10;5.38;;;1.73;;
47589;SDS011;33316;52.298;9.056;2023-04-30T11:14:39;3.20;;;1.40;;
47589;SDS011;33316;52.298;9.056;2023-04-30T11:17:08;7.40;;;2.10;;
47589;SDS011;33316;52.298;9.056;2023-04-30T11:19:40;6.00;;;1.70;;
47589;SDS011;33316;52.298;9.056;2023-04-30T11:22:14;4.82;;;1.40;;
47589;SDS011;33316;52.298;9.056;2023-04-30T11:27:18;3.03;;;1.27;;
47589;SDS011;33316;52.298;9.056;2023-04-30T11:29:45;4.18;;;1.45;;
47589;SDS011;33316;52.298;9.056;2023-04-30T11:32:12;4.80;;;1.55;;
47589;SDS011;33316;52.298;9.056;2023-04-30T11:34:42;2.15;;;0.93;;
47589;SDS011;33316;52.298;9.056;2023-04-30T11:37:10;2.80;;;1.50;;
47589;SDS011;33316;52.298;9.056;2023-04-30T11:39:38;5.47;;;1.80;;
47589;SDS011;33316;52.298;9.056;2023-04-30T11:42:05;4.95;;;1.60;;
47589;SDS011;33316;52.298;9.056;2023-04-30T11:44:32;3.88;;;1.40;;
47589;SDS011;33316;52.298;9.056;2023-04-30T11:46:59;4.50;;;1.50;;
47589;SDS011;33316;52.298;9.056;2023-04-30T11:49:26;6.20;;;1.80;;
47589;SDS011;33316;52.298;9.056;2023-04-30T11:51:54;3.92;;;1.23;;
47589;SDS011;33316;52.298;9.056;2023-04-30T11:54:21;5.72;;;1.30;;
47589;SDS011;33316;52.298;9.056;2023-04-30T11:56:48;4.68;;;1.30;;
47589;SDS011;33316;52.298;9.056;2023-04-30T11:59:15;3.00;;;1.05;;
47589;SDS011;33316;52.298;9.056;2023-04-30T12:01:42;3.10;;;1.08;;
47589;SDS011;33316;52.298;9.056;2023-04-30T12:04:09;3.65;;;1.45;;
47589;SDS011;33316;52.298;9.056;2023-04-30T12:06:36;3.00;;;1.02;;
47589;SDS011;33316;52.298;9.056;2023-04-30T12:09:04;3.30;;;1.20;;
47589;SDS011;33316;52.298;9.056;2023-04-30T12:11:33;4.37;;;1.20;;
47589;SDS011;33316;52.298;9.056;2023-04-30T12:14:02;2.78;;;0.90;;
47589;SDS011;33316;52.298;9.056;2023-04-30T12:16:38;2.83;;;1.05;;
47589;SDS011;33316;52.298;9.056;2023-04-30T12:19:06;6.68;;;1.65;;
47589;SDS011;33316;52.298;9.056;2023-04-30T12:21:33;5.57;;;1.38;;
47589;SDS011;33316;52.298;9.056;2023-04-30T12:24:02;2.53;;;1.20;;
47589;SDS011;33316;52.298;9.056;2023-04-30T12:26:33;4.53;;;1.30;;
47589;SDS011;33316;52.298;9.056;2023-04-30T12:29:02;6.95;;;1.63;;
47589;SDS011;33316;52.298;9.056;2023-04-30T12:31:30;9.63;;;1.42;;
47589;SDS011;33316;52.298;9.056;2023-04-30T12:33:57;2.13;;;1.00;;
47589;SDS011;33316;52.298;9.056;2023-04-30T12:36:29;4.47;;;1.20;;
47589;SDS011;33316;52.298;9.056;2023-04-30T12:39:01;6.10;;;1.15;;
47589;SDS011;33316;52.298;9.056;2023-04-30T12:41:33;6.47;;;1.30;;
47589;SDS011;33316;52.298;9.056;2023-04-30T12:44:18;2.92;;;1.10;;
47589;SDS011;33316;52.298;9.056;2023-04-30T12:46:46;2.92;;;1.02;;
47589;SDS011;33316;52.298;9.056;2023-04-30T12:49:21;3.60;;;1.00;;
47589;SDS011;33316;52.298;9.056;2023-04-30T12:51:49;2.10;;;0.85;;
47589;SDS011;33316;52.298;9.056;2023-04-30T12:54:24;3.83;;;1.13;;
47589;SDS011;33316;52.298;9.056;2023-04-30T12:56:56;3.63;;;1.10;;
47589;SDS011;33316;52.298;9.056;2023-04-30T12:59:24;6.65;;;1.33;;
47589;SDS011;33316;52.298;9.056;2023-04-30T13:01:50;3.90;;;1.27;;
47589;SDS011;33316;52.298;9.056;2023-04-30T13:04:19;3.33;;;1.20;;
47589;SDS011;33316;52.298;9.056;2023-04-30T13:06:46;3.60;;;1.30;;
47589;SDS011;33316;52.298;9.056;2023-04-30T13:09:13;3.75;;;1.08;;
47589;SDS011;33316;52.298;9.056;2023-04-30T13:11:41;2.53;;;0.90;;
47589;SDS011;33316;52.298;9.056;2023-04-30T13:14:08;1.98;;;0.70;;
47589;SDS011;33316;52.298;9.056;2023-04-30T13:16:37;4.03;;;1.27;;
47589;SDS011;33316;52.298;9.056;2023-04-30T13:19:04;3.72;;;1.15;;
47589;SDS011;33316;52.298;9.056;2023-04-30T13:21:31;2.63;;;0.90;;
47589;SDS011;33316;52.298;9.056;2023-04-30T13:23:57;2.42;;;1.10;;
47589;SDS011;33316;52.298;9.056;2023-04-30T13:26:24;3.88;;;1.13;;
47589;SDS011;33316;52.298;9.056;2023-04-30T13:28:53;3.20;;;1.35;;
47589;SDS011;33316;52.298;9.056;2023-04-30T13:31:19;2.45;;;1.20;;
47589;SDS011;33316;52.298;9.056;2023-04-30T13:33:47;5.38;;;1.50;;
47589;SDS011;33316;52.298;9.056;2023-04-30T13:36:14;3.00;;;1.10;;
47589;SDS011;33316;52.298;9.056;2023-04-30T13:38:41;4.13;;;1.33;;
47589;SDS011;33316;52.298;9.056;2023-04-30T13:41:08;3.53;;;1.38;;
47589;SDS011;33316;52.298;9.056;2023-04-30T13:43:35;4.38;;;1.13;;
47589;SDS011;33316;52.298;9.056;2023-04-30T13:46:04;3.35;;;1.35;;
47589;SDS011;33316;52.298;9.056;2023-04-30T13:48:31;2.70;;;1.10;;
47589;SDS011;33316;52.298;9.056;2023-04-30T13:50:58;4.28;;;1.40;;
47589;SDS011;33316;52.298;9.056;2023-04-30T13:53:25;2.10;;;0.85;;
47589;SDS011;33316;52.298;9.056;2023-04-30T13:55:52;4.13;;;1.10;;
47589;SDS011;33316;52.298;9.056;2023-04-30T13:58:19;2.40;;;1.10;;
47589;SDS011;33316;52.298;9.056;2023-04-30T14:00:46;3.40;;;1.00;;
47589;SDS011;33316;52.298;9.056;2023-04-30T14:03:17;3.75;;;1.30;;
47589;SDS011;33316;52.298;9.056;2023-04-30T14:05:44;4.95;;;1.15;;
47589;SDS011;33316;52.298;9.056;2023-04-30T14:08:11;2.58;;;1.08;;
47589;SDS011;33316;52.298;9.056;2023-04-30T14:10:38;4.30;;;1.02;;
47589;SDS011;33316;52.298;9.056;2023-04-30T14:13:05;2.25;;;1.00;;
47589;SDS011;33316;52.298;9.056;2023-04-30T14:15:32;3.45;;;1.25;;
47589;SDS011;33316;52.298;9.056;2023-04-30T14:18:00;4.78;;;1.08;;
47589;SDS011;33316;52.298;9.056;2023-04-30T14:20:30;2.60;;;1.08;;
47589;SDS011;33316;52.298;9.056;2023-04-30T14:22:57;2.83;;;0.82;;
47589;SDS011;33316;52.298;9.056;2023-04-30T14:25:24;3.72;;;1.10;;
47589;SDS011;33316;52.298;9.056;2023-04-30T14:27:50;2.88;;;1.30;;
47589;SDS011;33316;52.298;9.056;2023-04-30T14:30:17;5.68;;;1.20;;
47589;SDS011;33316;52.298;9.056;2023-04-30T14:32:47;4.13;;;1.17;;
47589;SDS011;33316;52.298;9.056;2023-04-30T14:35:17;4.90;;;1.27;;
47589;SDS011;33316;52.298;9.056;2023-04-30T14:37:45;2.50;;;0.98;;
47589;SDS011;33316;52.298;9.056;2023-04-30T14:40:12;4.10;;;0.85;;
47589;SDS011;33316;52.298;9.056;2023-04-30T14:42:41;2.00;;;0.75;;
47589;SDS011;33316;52.298;9.056;2023-04-30T14:45:08;2.97;;;1.00;;
47589;SDS011;33316;52.298;9.056;2023-04-30T14:47:35;3.35;;;1.13;;
47589;SDS011;33316;52.298;9.056;2023-04-30T14:50:05;3.13;;;0.77;;
47589;SDS011;33316;52.298;9.056;2023-04-30T14:52:32;2.08;;;0.82;;
47589;SDS011;33316;52.298;9.056;2023-04-30T14:55:03;3.30;;;0.85;;
47589;SDS011;33316;52.298;9.056;2023-04-30T14:57:32;2.58;;;1.00;;
47589;SDS011;33316;52.298;9.056;2023-04-30T15:00:00;1.95;;;0.77;;
47589;SDS011;33316;52.298;9.056;2023-04-30T15:02:33;2.53;;;0.85;;